Terminal Aerodrome Forecast
Issued by NWS

Home | Current Version | Previous Version | Graphics & Text | Print | Product List | Glossary On
Versions: 1 2 3 4 5 6 7 8 9 10 11 12 13 14 15
000
FTUS43 KABR 211124
TAFATY
TAF
KATY 211124Z 2112/2212 VRB04KT P6SM SKC
     FM211600 21007KT P6SM FEW250
     FM220300 16009KT P6SM SKC WS020/19040KT=

USA.gov is the U.S. government's official web portal to all federal, state and local government web resources and services.